sensor_id;sensor_type;location;lat;lon;timestamp;P1;durP1;ratioP1;P2;durP2;ratioP2
30593;SDS011;33199;47.590;8.300;2023-04-25T00:01:10;1.08;;;1.00;;
30593;SDS011;33199;47.590;8.300;2023-04-25T00:03:38;4.03;;;1.17;;
30593;SDS011;33199;47.590;8.300;2023-04-25T00:06:04;1.10;;;1.10;;
30593;SDS011;33199;47.590;8.300;2023-04-25T00:08:29;0.80;;;0.80;;
30593;SDS011;33199;47.590;8.300;2023-04-25T00:10:57;1.10;;;1.00;;
30593;SDS011;33199;47.590;8.300;2023-04-25T00:13:22;1.00;;;1.00;;
30593;SDS011;33199;47.590;8.300;2023-04-25T00:15:50;1.73;;;1.00;;
30593;SDS011;33199;47.590;8.300;2023-04-25T00:18:16;1.30;;;1.20;;
30593;SDS011;33199;47.590;8.300;2023-04-25T00:23:20;1.10;;;1.00;;
30593;SDS011;33199;47.590;8.300;2023-04-25T00:25:47;0.85;;;0.85;;
30593;SDS011;33199;47.590;8.300;2023-04-25T00:28:14;1.83;;;0.98;;
30593;SDS011;33199;47.590;8.300;2023-04-25T00:30:40;1.02;;;0.90;;
30593;SDS011;33199;47.590;8.300;2023-04-25T00:33:06;0.90;;;0.90;;
30593;SDS011;33199;47.590;8.300;2023-04-25T00:35:32;1.50;;;1.17;;
30593;SDS011;33199;47.590;8.300;2023-04-25T00:37:59;1.45;;;0.93;;
30593;SDS011;33199;47.590;8.300;2023-04-25T00:40:25;1.60;;;1.20;;
30593;SDS011;33199;47.590;8.300;2023-04-25T00:42:51;1.23;;;1.20;;
30593;SDS011;33199;47.590;8.300;2023-04-25T00:45:17;1.50;;;1.30;;
30593;SDS011;33199;47.590;8.300;2023-04-25T00:47:43;0.70;;;0.70;;
30593;SDS011;33199;47.590;8.300;2023-04-25T00:50:10;1.50;;;1.08;;
30593;SDS011;33199;47.590;8.300;2023-04-25T00:52:39;3.03;;;1.00;;
30593;SDS011;33199;47.590;8.300;2023-04-25T00:55:09;1.00;;;1.00;;
30593;SDS011;33199;47.590;8.300;2023-04-25T00:57:36;0.90;;;0.90;;
30593;SDS011;33199;47.590;8.300;2023-04-25T01:00:02;1.10;;;1.10;;
30593;SDS011;33199;47.590;8.300;2023-04-25T01:02:30;1.10;;;1.10;;
30593;SDS011;33199;47.590;8.300;2023-04-25T01:04:57;1.25;;;1.00;;
30593;SDS011;33199;47.590;8.300;2023-04-25T01:07:23;1.10;;;1.00;;
30593;SDS011;33199;47.590;8.300;2023-04-25T01:09:49;0.90;;;0.90;;
30593;SDS011;33199;47.590;8.300;2023-04-25T01:12:17;1.40;;;1.30;;
30593;SDS011;33199;47.590;8.300;2023-04-25T01:14:42;0.65;;;0.65;;
30593;SDS011;33199;47.590;8.300;2023-04-25T01:17:08;0.93;;;0.93;;
30593;SDS011;33199;47.590;8.300;2023-04-25T01:19:34;0.90;;;0.90;;
30593;SDS011;33199;47.590;8.300;2023-04-25T01:22:00;0.90;;;0.90;;
30593;SDS011;33199;47.590;8.300;2023-04-25T01:24:28;1.20;;;1.10;;
30593;SDS011;33199;47.590;8.300;2023-04-25T01:26:55;1.10;;;1.10;;
30593;SDS011;33199;47.590;8.300;2023-04-25T01:29:23;0.90;;;0.90;;
30593;SDS011;33199;47.590;8.300;2023-04-25T01:31:49;0.85;;;0.85;;
30593;SDS011;33199;47.590;8.300;2023-04-25T01:34:18;0.90;;;0.90;;
30593;SDS011;33199;47.590;8.300;2023-04-25T01:36:43;0.90;;;0.90;;
30593;SDS011;33199;47.590;8.300;2023-04-25T01:39:09;1.23;;;1.15;;
30593;SDS011;33199;47.590;8.300;2023-04-25T01:41:35;0.90;;;0.90;;
30593;SDS011;33199;47.590;8.300;2023-04-25T01:44:01;0.80;;;0.80;;
30593;SDS011;33199;47.590;8.300;2023-04-25T01:46:29;1.67;;;1.00;;
30593;SDS011;33199;47.590;8.300;2023-04-25T01:48:56;1.55;;;1.17;;
30593;SDS011;33199;47.590;8.300;2023-04-25T01:51:22;1.15;;;1.13;;
30593;SDS011;33199;47.590;8.300;2023-04-25T01:53:48;0.77;;;0.73;;
30593;SDS011;33199;47.590;8.300;2023-04-25T01:56:14;1.48;;;0.98;;
30593;SDS011;33199;47.590;8.300;2023-04-25T01:58:39;1.20;;;1.10;;
30593;SDS011;33199;47.590;8.300;2023-04-25T02:01:07;1.27;;;1.17;;
30593;SDS011;33199;47.590;8.300;2023-04-25T02:03:35;0.90;;;0.90;;
30593;SDS011;33199;47.590;8.300;2023-04-25T02:06:01;0.85;;;0.85;;
30593;SDS011;33199;47.590;8.300;2023-04-25T02:08:27;0.80;;;0.80;;
30593;SDS011;33199;47.590;8.300;2023-04-25T02:10:52;1.13;;;1.13;;
30593;SDS011;33199;47.590;8.300;2023-04-25T02:13:18;0.90;;;0.90;;
30593;SDS011;33199;47.590;8.300;2023-04-25T02:15:44;1.10;;;1.00;;
30593;SDS011;33199;47.590;8.300;2023-04-25T02:18:11;0.82;;;0.82;;
30593;SDS011;33199;47.590;8.300;2023-04-25T02:20:37;1.10;;;1.05;;
30593;SDS011;33199;47.590;8.300;2023-04-25T02:23:03;0.77;;;0.77;;
30593;SDS011;33199;47.590;8.300;2023-04-25T02:25:28;0.98;;;0.98;;
30593;SDS011;33199;47.590;8.300;2023-04-25T02:27:54;0.90;;;0.90;;
30593;SDS011;33199;47.590;8.300;2023-04-25T02:30:20;0.75;;;0.75;;
30593;SDS011;33199;47.590;8.300;2023-04-25T02:32:45;1.00;;;1.00;;
30593;SDS011;33199;47.590;8.300;2023-04-25T02:35:11;0.80;;;0.80;;
30593;SDS011;33199;47.590;8.300;2023-04-25T02:37:37;1.05;;;1.00;;
30593;SDS011;33199;47.590;8.300;2023-04-25T02:40:04;0.90;;;0.90;;
30593;SDS011;33199;47.590;8.300;2023-04-25T02:42:30;1.27;;;0.98;;
30593;SDS011;33199;47.590;8.300;2023-04-25T02:44:56;1.23;;;0.95;;
30593;SDS011;33199;47.590;8.300;2023-04-25T02:47:22;0.80;;;0.80;;
30593;SDS011;33199;47.590;8.300;2023-04-25T02:49:47;1.05;;;0.90;;
30593;SDS011;33199;47.590;8.300;2023-04-25T02:52:13;0.88;;;0.88;;
30593;SDS011;33199;47.590;8.300;2023-04-25T02:54:39;1.13;;;0.90;;
30593;SDS011;33199;47.590;8.300;2023-04-25T02:57:05;1.90;;;1.20;;
30593;SDS011;33199;47.590;8.300;2023-04-25T02:59:33;1.33;;;1.10;;
30593;SDS011;33199;47.590;8.300;2023-04-25T03:01:59;1.00;;;0.93;;
30593;SDS011;33199;47.590;8.300;2023-04-25T03:04:24;0.80;;;0.80;;
30593;SDS011;33199;47.590;8.300;2023-04-25T03:06:50;0.85;;;0.85;;
30593;SDS011;33199;47.590;8.300;2023-04-25T03:09:17;0.77;;;0.77;;
30593;SDS011;33199;47.590;8.300;2023-04-25T03:11:43;0.75;;;0.75;;
30593;SDS011;33199;47.590;8.300;2023-04-25T03:14:09;3.10;;;0.80;;
30593;SDS011;33199;47.590;8.300;2023-04-25T03:16:35;0.70;;;0.70;;
30593;SDS011;33199;47.590;8.300;2023-04-25T03:19:02;1.75;;;1.00;;
30593;SDS011;33199;47.590;8.300;2023-04-25T03:21:28;1.38;;;1.00;;
30593;SDS011;33199;47.590;8.300;2023-04-25T03:23:54;0.80;;;0.80;;
30593;SDS011;33199;47.590;8.300;2023-04-25T03:26:20;0.90;;;0.90;;
30593;SDS011;33199;47.590;8.300;2023-04-25T03:28:45;1.10;;;0.93;;
30593;SDS011;33199;47.590;8.300;2023-04-25T03:31:11;0.90;;;0.80;;
30593;SDS011;33199;47.590;8.300;2023-04-25T03:33:36;0.80;;;0.80;;
30593;SDS011;33199;47.590;8.300;2023-04-25T03:36:02;0.80;;;0.80;;
30593;SDS011;33199;47.590;8.300;2023-04-25T03:38:28;0.90;;;0.90;;
30593;SDS011;33199;47.590;8.300;2023-04-25T03:40:54;0.68;;;0.68;;
30593;SDS011;33199;47.590;8.300;2023-04-25T03:43:21;0.80;;;0.80;;
30593;SDS011;33199;47.590;8.300;2023-04-25T03:45:47;1.10;;;1.00;;
30593;SDS011;33199;47.590;8.300;2023-04-25T03:48:12;0.95;;;0.80;;
30593;SDS011;33199;47.590;8.300;2023-04-25T03:50:38;0.90;;;0.90;;
30593;SDS011;33199;47.590;8.300;2023-04-25T03:53:03;0.80;;;0.80;;
30593;SDS011;33199;47.590;8.300;2023-04-25T03:55:29;1.30;;;1.20;;
30593;SDS011;33199;47.590;8.300;2023-04-25T03:57:55;1.00;;;0.95;;
30593;SDS011;33199;47.590;8.300;2023-04-25T04:00:23;1.00;;;1.00;;
30593;SDS011;33199;47.590;8.300;2023-04-25T04:02:48;0.85;;;0.85;;
30593;SDS011;33199;47.590;8.300;2023-04-25T04:05:14;0.80;;;0.80;;
30593;SDS011;33199;47.590;8.300;2023-04-25T04:07:39;4.03;;;1.00;;
30593;SDS011;33199;47.590;8.300;2023-04-25T04:10:07;2.65;;;0.60;;
30593;SDS011;33199;47.590;8.300;2023-04-25T04:12:36;1.60;;;1.00;;
30593;SDS011;33199;47.590;8.300;2023-04-25T04:15:05;0.70;;;0.70;;
30593;SDS011;33199;47.590;8.300;2023-04-25T04:17:32;1.63;;;0.90;;
30593;SDS011;33199;47.590;8.300;2023-04-25T04:19:57;0.85;;;0.85;;
30593;SDS011;33199;47.590;8.300;2023-04-25T04:22:23;0.90;;;0.90;;
30593;SDS011;33199;47.590;8.300;2023-04-25T04:24:49;1.50;;;0.93;;
30593;SDS011;33199;47.590;8.300;2023-04-25T04:27:16;0.68;;;0.68;;
30593;SDS011;33199;47.590;8.300;2023-04-25T04:29:43;1.02;;;0.93;;
30593;SDS011;33199;47.590;8.300;2023-04-25T04:32:08;0.82;;;0.82;;
30593;SDS011;33199;47.590;8.300;2023-04-25T04:34:34;0.82;;;0.70;;
30593;SDS011;33199;47.590;8.300;2023-04-25T04:37:00;0.70;;;0.70;;
30593;SDS011;33199;47.590;8.300;2023-04-25T04:39:26;0.98;;;0.98;;
30593;SDS011;33199;47.590;8.300;2023-04-25T04:41:52;1.08;;;1.08;;
30593;SDS011;33199;47.590;8.300;2023-04-25T04:44:18;0.80;;;0.80;;
30593;SDS011;33199;47.590;8.300;2023-04-25T04:46:44;0.90;;;0.90;;
30593;SDS011;33199;47.590;8.300;2023-04-25T04:49:10;1.20;;;1.10;;
30593;SDS011;33199;47.590;8.300;2023-04-25T04:51:36;0.80;;;0.80;;
30593;SDS011;33199;47.590;8.300;2023-04-25T04:54:03;4.13;;;0.75;;
30593;SDS011;33199;47.590;8.300;2023-04-25T04:56:29;1.10;;;1.00;;
30593;SDS011;33199;47.590;8.300;2023-04-25T04:58:58;0.90;;;0.90;;
30593;SDS011;33199;47.590;8.300;2023-04-25T05:01:24;0.73;;;0.73;;
30593;SDS011;33199;47.590;8.300;2023-04-25T05:03:50;1.40;;;1.10;;
30593;SDS011;33199;47.590;8.300;2023-04-25T05:06:17;1.08;;;1.08;;
30593;SDS011;33199;47.590;8.300;2023-04-25T05:08:44;0.88;;;0.82;;
30593;SDS011;33199;47.590;8.300;2023-04-25T05:11:09;1.00;;;0.90;;
30593;SDS011;33199;47.590;8.300;2023-04-25T05:13:36;0.75;;;0.75;;
30593;SDS011;33199;47.590;8.300;2023-04-25T05:16:01;4.72;;;0.98;;
30593;SDS011;33199;47.590;8.300;2023-04-25T05:18:27;1.35;;;0.80;;
30593;SDS011;33199;47.590;8.300;2023-04-25T05:20:53;0.80;;;0.80;;
30593;SDS011;33199;47.590;8.300;2023-04-25T05:23:18;0.98;;;0.80;;
30593;SDS011;33199;47.590;8.300;2023-04-25T05:25:44;0.88;;;0.80;;
30593;SDS011;33199;47.590;8.300;2023-04-25T05:28:12;3.10;;;1.58;;
30593;SDS011;33199;47.590;8.300;2023-04-25T05:33:04;3.72;;;1.75;;
30593;SDS011;33199;47.590;8.300;2023-04-25T05:35:29;1.42;;;1.33;;
30593;SDS011;33199;47.590;8.300;2023-04-25T05:37:55;4.75;;;1.27;;
30593;SDS011;33199;47.590;8.300;2023-04-25T05:40:20;1.40;;;1.30;;
30593;SDS011;33199;47.590;8.300;2023-04-25T05:42:46;3.35;;;1.25;;
30593;SDS011;33199;47.590;8.300;2023-04-25T05:45:12;2.20;;;1.30;;
30593;SDS011;33199;47.590;8.300;2023-04-25T05:47:38;3.00;;;1.33;;
30593;SDS011;33199;47.590;8.300;2023-04-25T05:50:03;2.85;;;1.15;;
30593;SDS011;33199;47.590;8.300;2023-04-25T05:52:29;1.55;;;1.23;;
30593;SDS011;33199;47.590;8.300;2023-04-25T05:54:55;1.85;;;1.23;;
30593;SDS011;33199;47.590;8.300;2023-04-25T05:57:22;1.85;;;1.10;;
30593;SDS011;33199;47.590;8.300;2023-04-25T05:59:49;2.25;;;1.30;;
30593;SDS011;33199;47.590;8.300;2023-04-25T06:02:15;2.50;;;1.20;;
30593;SDS011;33199;47.590;8.300;2023-04-25T06:04:41;1.50;;;1.10;;
30593;SDS011;33199;47.590;8.300;2023-04-25T06:07:06;1.20;;;1.10;;
30593;SDS011;33199;47.590;8.300;2023-04-25T06:09:32;1.13;;;1.10;;
30593;SDS011;33199;47.590;8.300;2023-04-25T06:11:57;2.00;;;1.30;;
30593;SDS011;33199;47.590;8.300;2023-04-25T06:14:23;1.75;;;0.90;;
30593;SDS011;33199;47.590;8.300;2023-04-25T06:16:48;2.05;;;1.00;;
30593;SDS011;33199;47.590;8.300;2023-04-25T06:19:14;1.27;;;1.17;;
30593;SDS011;33199;47.590;8.300;2023-04-25T06:21:41;0.80;;;0.80;;
30593;SDS011;33199;47.590;8.300;2023-04-25T06:24:08;3.15;;;1.33;;
30593;SDS011;33199;47.590;8.300;2023-04-25T06:26:33;1.73;;;1.02;;
30593;SDS011;33199;47.590;8.300;2023-04-25T06:28:59;1.17;;;1.08;;
30593;SDS011;33199;47.590;8.300;2023-04-25T06:31:24;0.85;;;0.85;;
30593;SDS011;33199;47.590;8.300;2023-04-25T06:33:50;1.60;;;1.10;;
30593;SDS011;33199;47.590;8.300;2023-04-25T06:36:19;1.38;;;1.20;;
30593;SDS011;33199;47.590;8.300;2023-04-25T06:38:49;1.58;;;1.10;;
30593;SDS011;33199;47.590;8.300;2023-04-25T06:41:15;1.50;;;1.35;;
30593;SDS011;33199;47.590;8.300;2023-04-25T06:43:41;1.52;;;1.42;;
30593;SDS011;33199;47.590;8.300;2023-04-25T06:46:06;2.65;;;1.00;;
30593;SDS011;33199;47.590;8.300;2023-04-25T06:48:32;1.00;;;1.00;;
30593;SDS011;33199;47.590;8.300;2023-04-25T06:50:58;1.05;;;0.85;;
30593;SDS011;33199;47.590;8.300;2023-04-25T06:53:23;1.05;;;1.05;;
30593;SDS011;33199;47.590;8.300;2023-04-25T06:55:49;1.08;;;1.00;;
30593;SDS011;33199;47.590;8.300;2023-04-25T06:58:15;1.92;;;1.00;;
30593;SDS011;33199;47.590;8.300;2023-04-25T07:00:41;1.45;;;0.88;;
30593;SDS011;33199;47.590;8.300;2023-04-25T07:03:06;1.20;;;1.10;;
30593;SDS011;33199;47.590;8.300;2023-04-25T07:05:32;1.40;;;1.23;;
30593;SDS011;33199;47.590;8.300;2023-04-25T07:07:58;0.90;;;0.90;;
30593;SDS011;33199;47.590;8.300;2023-04-25T07:10:23;1.00;;;1.00;;
30593;SDS011;33199;47.590;8.300;2023-04-25T07:12:50;1.08;;;0.95;;
30593;SDS011;33199;47.590;8.300;2023-04-25T07:15:15;2.05;;;0.93;;
30593;SDS011;33199;47.590;8.300;2023-04-25T07:17:41;3.03;;;1.15;;
30593;SDS011;33199;47.590;8.300;2023-04-25T07:20:07;1.20;;;1.10;;
30593;SDS011;33199;47.590;8.300;2023-04-25T07:22:34;3.47;;;0.90;;
30593;SDS011;33199;47.590;8.300;2023-04-25T07:25:00;3.83;;;1.15;;
30593;SDS011;33199;47.590;8.300;2023-04-25T07:27:25;1.33;;;0.90;;
30593;SDS011;33199;47.590;8.300;2023-04-25T07:29:51;0.88;;;0.88;;
30593;SDS011;33199;47.590;8.300;2023-04-25T07:32:16;1.33;;;0.93;;
30593;SDS011;33199;47.590;8.300;2023-04-25T07:34:42;1.00;;;0.80;;
30593;SDS011;33199;47.590;8.300;2023-04-25T07:37:07;1.23;;;0.82;;
30593;SDS011;33199;47.590;8.300;2023-04-25T07:39:33;1.33;;;0.80;;
30593;SDS011;33199;47.590;8.300;2023-04-25T07:41:59;0.77;;;0.77;;
30593;SDS011;33199;47.590;8.300;2023-04-25T07:44:26;2.35;;;0.90;;
30593;SDS011;33199;47.590;8.300;2023-04-25T07:46:52;0.98;;;0.88;;
30593;SDS011;33199;47.590;8.300;2023-04-25T07:49:18;1.35;;;1.10;;
30593;SDS011;33199;47.590;8.300;2023-04-25T07:51:43;1.52;;;0.95;;
30593;SDS011;33199;47.590;8.300;2023-04-25T07:54:09;1.63;;;1.00;;
30593;SDS011;33199;47.590;8.300;2023-04-25T07:56:37;0.75;;;0.75;;
30593;SDS011;33199;47.590;8.300;2023-04-25T07:59:03;1.50;;;0.80;;
30593;SDS011;33199;47.590;8.300;2023-04-25T08:01:28;1.38;;;0.75;;
30593;SDS011;33199;47.590;8.300;2023-04-25T08:03:54;1.00;;;0.90;;
30593;SDS011;33199;47.590;8.300;2023-04-25T08:06:19;0.80;;;0.80;;
30593;SDS011;33199;47.590;8.300;2023-04-25T08:08:45;0.90;;;0.90;;
30593;SDS011;33199;47.590;8.300;2023-04-25T08:11:10;0.70;;;0.68;;
30593;SDS011;33199;47.590;8.300;2023-04-25T08:13:36;1.63;;;1.23;;
30593;SDS011;33199;47.590;8.300;2023-04-25T08:16:02;0.90;;;0.90;;
30593;SDS011;33199;47.590;8.300;2023-04-25T08:18:27;0.85;;;0.70;;
30593;SDS011;33199;47.590;8.300;2023-04-25T08:20:53;1.58;;;0.82;;
30593;SDS011;33199;47.590;8.300;2023-04-25T08:23:18;1.15;;;0.70;;
30593;SDS011;33199;47.590;8.300;2023-04-25T08:25:44;1.08;;;0.90;;
30593;SDS011;33199;47.590;8.300;2023-04-25T08:28:10;1.02;;;0.88;;
30593;SDS011;33199;47.590;8.300;2023-04-25T08:30:36;0.90;;;0.70;;
30593;SDS011;33199;47.590;8.300;2023-04-25T08:33:01;1.27;;;0.70;;
30593;SDS011;33199;47.590;8.300;2023-04-25T08:35:27;2.72;;;0.60;;
30593;SDS011;33199;47.590;8.300;2023-04-25T08:37:53;1.77;;;0.80;;
30593;SDS011;33199;47.590;8.300;2023-04-25T08:40:19;1.48;;;0.80;;
30593;SDS011;33199;47.590;8.300;2023-04-25T08:42:51;2.45;;;0.88;;
30593;SDS011;33199;47.590;8.300;2023-04-25T08:45:18;0.80;;;0.80;;
30593;SDS011;33199;47.590;8.300;2023-04-25T08:47:45;1.30;;;0.88;;
30593;SDS011;33199;47.590;8.300;2023-04-25T08:52:48;0.80;;;0.80;;
30593;SDS011;33199;47.590;8.300;2023-04-25T08:55:17;0.98;;;0.73;;
30593;SDS011;33199;47.590;8.300;2023-04-25T08:57:44;0.82;;;0.70;;
30593;SDS011;33199;47.590;8.300;2023-04-25T09:00:10;0.60;;;0.60;;
30593;SDS011;33199;47.590;8.300;2023-04-25T09:02:37;0.73;;;0.60;;
30593;SDS011;33199;47.590;8.300;2023-04-25T09:05:04;1.58;;;0.90;;
30593;SDS011;33199;47.590;8.300;2023-04-25T09:07:31;0.82;;;0.82;;
30593;SDS011;33199;47.590;8.300;2023-04-25T09:09:57;0.80;;;0.80;;
30593;SDS011;33199;47.590;8.300;2023-04-25T09:12:26;0.70;;;0.70;;
30593;SDS011;33199;47.590;8.300;2023-04-25T09:15:14;0.70;;;0.70;;
30593;SDS011;33199;47.590;8.300;2023-04-25T09:17:41;1.45;;;1.15;;
30593;SDS011;33199;47.590;8.300;2023-04-25T09:20:09;0.70;;;0.70;;
30593;SDS011;33199;47.590;8.300;2023-04-25T09:22:37;0.80;;;0.77;;
30593;SDS011;33199;47.590;8.300;2023-04-25T09:25:12;1.15;;;0.80;;
30593;SDS011;33199;47.590;8.300;2023-04-25T09:27:50;0.63;;;0.63;;
30593;SDS011;33199;47.590;8.300;2023-04-25T09:30:17;0.73;;;0.68;;
30593;SDS011;33199;47.590;8.300;2023-04-25T09:32:43;0.95;;;0.70;;
30593;SDS011;33199;47.590;8.300;2023-04-25T09:35:10;1.00;;;0.90;;
30593;SDS011;33199;47.590;8.300;2023-04-25T09:37:36;0.70;;;0.70;;
30593;SDS011;33199;47.590;8.300;2023-04-25T09:40:04;0.60;;;0.60;;
30593;SDS011;33199;47.590;8.300;2023-04-25T09:42:32;0.63;;;0.63;;
30593;SDS011;33199;47.590;8.300;2023-04-25T09:44:59;0.77;;;0.77;;
30593;SDS011;33199;47.590;8.300;2023-04-25T09:47:29;0.60;;;0.60;;
30593;SDS011;33199;47.590;8.300;2023-04-25T09:49:54;3.30;;;0.88;;
30593;SDS011;33199;47.590;8.300;2023-04-25T09:52:21;0.68;;;0.68;;
30593;SDS011;33199;47.590;8.300;2023-04-25T09:54:50;0.70;;;0.70;;
30593;SDS011;33199;47.590;8.300;2023-04-25T09:57:17;0.82;;;0.70;;
30593;SDS011;33199;47.590;8.300;2023-04-25T09:59:47;0.80;;;0.80;;
30593;SDS011;33199;47.590;8.300;2023-04-25T10:02:16;0.60;;;0.60;;
30593;SDS011;33199;47.590;8.300;2023-04-25T10:04:50;1.30;;;0.70;;
30593;SDS011;33199;47.590;8.300;2023-04-25T10:07:19;0.60;;;0.50;;
30593;SDS011;33199;47.590;8.300;2023-04-25T10:09:48;0.50;;;0.50;;
30593;SDS011;33199;47.590;8.300;2023-04-25T10:12:17;0.70;;;0.70;;
30593;SDS011;33199;47.590;8.300;2023-04-25T10:14:43;1.73;;;0.60;;
30593;SDS011;33199;47.590;8.300;2023-04-25T10:17:11;0.75;;;0.65;;
30593;SDS011;33199;47.590;8.300;2023-04-25T10:19:36;0.60;;;0.60;;
30593;SDS011;33199;47.590;8.300;2023-04-25T10:22:07;0.63;;;0.63;;
30593;SDS011;33199;47.590;8.300;2023-04-25T10:24:36;2.10;;;0.80;;
30593;SDS011;33199;47.590;8.300;2023-04-25T10:27:04;0.60;;;0.60;;
30593;SDS011;33199;47.590;8.300;2023-04-25T10:29:30;0.70;;;0.70;;
30593;SDS011;33199;47.590;8.300;2023-04-25T10:31:55;1.40;;;0.80;;
30593;SDS011;33199;47.590;8.300;2023-04-25T10:34:41;0.68;;;0.68;;
30593;SDS011;33199;47.590;8.300;2023-04-25T10:37:11;0.82;;;0.70;;
30593;SDS011;33199;47.590;8.300;2023-04-25T10:39:38;0.60;;;0.60;;
30593;SDS011;33199;47.590;8.300;2023-04-25T10:42:07;0.55;;;0.50;;
30593;SDS011;33199;47.590;8.300;2023-04-25T10:44:34;0.50;;;0.50;;
30593;SDS011;33199;47.590;8.300;2023-04-25T10:47:01;0.77;;;0.60;;
30593;SDS011;33199;47.590;8.300;2023-04-25T10:49:31;0.60;;;0.60;;
30593;SDS011;33199;47.590;8.300;2023-04-25T10:54:48;0.60;;;0.60;;
30593;SDS011;33199;47.590;8.300;2023-04-25T10:57:31;1.10;;;0.70;;
30593;SDS011;33199;47.590;8.300;2023-04-25T11:00:15;0.50;;;0.50;;
30593;SDS011;33199;47.590;8.300;2023-04-25T11:02:53;0.57;;;0.57;;
30593;SDS011;33199;47.590;8.300;2023-04-25T11:05:30;0.60;;;0.60;;
30593;SDS011;33199;47.590;8.300;2023-04-25T11:07:58;0.75;;;0.50;;
30593;SDS011;33199;47.590;8.300;2023-04-25T11:10:34;0.68;;;0.50;;
30593;SDS011;33199;47.590;8.300;2023-04-25T11:13:02;1.65;;;0.80;;
30593;SDS011;33199;47.590;8.300;2023-04-25T11:15:28;0.68;;;0.52;;
30593;SDS011;33199;47.590;8.300;2023-04-25T11:17:54;0.50;;;0.50;;
30593;SDS011;33199;47.590;8.300;2023-04-25T11:20:20;2.65;;;0.63;;
30593;SDS011;33199;47.590;8.300;2023-04-25T11:22:47;0.60;;;0.60;;
30593;SDS011;33199;47.590;8.300;2023-04-25T11:25:14;0.73;;;0.73;;
30593;SDS011;33199;47.590;8.300;2023-04-25T11:27:51;0.73;;;0.57;;
30593;SDS011;33199;47.590;8.300;2023-04-25T11:30:22;0.43;;;0.43;;
30593;SDS011;33199;47.590;8.300;2023-04-25T11:32:49;0.77;;;0.55;;
30593;SDS011;33199;47.590;8.300;2023-04-25T11:35:16;0.63;;;0.60;;
30593;SDS011;33199;47.590;8.300;2023-04-25T11:37:43;0.73;;;0.73;;
30593;SDS011;33199;47.590;8.300;2023-04-25T11:40:10;0.60;;;0.55;;
30593;SDS011;33199;47.590;8.300;2023-04-25T11:42:37;0.80;;;0.63;;
30593;SDS011;33199;47.590;8.300;2023-04-25T11:45:03;0.73;;;0.60;;
30593;SDS011;33199;47.590;8.300;2023-04-25T11:47:30;0.60;;;0.60;;
30593;SDS011;33199;47.590;8.300;2023-04-25T11:50:00;0.50;;;0.50;;
30593;SDS011;33199;47.590;8.300;2023-04-25T11:52:44;0.85;;;0.60;;
30593;SDS011;33199;47.590;8.300;2023-04-25T11:57:44;0.45;;;0.45;;
30593;SDS011;33199;47.590;8.300;2023-04-25T12:00:13;0.95;;;0.60;;
30593;SDS011;33199;47.590;8.300;2023-04-25T12:02:44;1.90;;;0.90;;
30593;SDS011;33199;47.590;8.300;2023-04-25T12:05:20;0.63;;;0.60;;
30593;SDS011;33199;47.590;8.300;2023-04-25T12:07:48;2.63;;;0.52;;
30593;SDS011;33199;47.590;8.300;2023-04-25T12:10:15;0.50;;;0.50;;
30593;SDS011;33199;47.590;8.300;2023-04-25T12:12:43;0.60;;;0.60;;
30593;SDS011;33199;47.590;8.300;2023-04-25T12:15:13;1.00;;;0.60;;
30593;SDS011;33199;47.590;8.300;2023-04-25T12:17:44;0.57;;;0.57;;
30593;SDS011;33199;47.590;8.300;2023-04-25T12:20:12;2.15;;;0.40;;
30593;SDS011;33199;47.590;8.300;2023-04-25T12:22:42;0.50;;;0.50;;
30593;SDS011;33199;47.590;8.300;2023-04-25T12:25:13;0.60;;;0.50;;
30593;SDS011;33199;47.590;8.300;2023-04-25T12:28:14;0.47;;;0.47;;
30593;SDS011;33199;47.590;8.300;2023-04-25T12:33:23;1.48;;;0.60;;
30593;SDS011;33199;47.590;8.300;2023-04-25T12:35:49;0.65;;;0.50;;
30593;SDS011;33199;47.590;8.300;2023-04-25T12:38:25;0.80;;;0.60;;
30593;SDS011;33199;47.590;8.300;2023-04-25T12:41:00;0.52;;;0.52;;
30593;SDS011;33199;47.590;8.300;2023-04-25T12:43:26;0.50;;;0.50;;
30593;SDS011;33199;47.590;8.300;2023-04-25T12:45:52;0.60;;;0.60;;
30593;SDS011;33199;47.590;8.300;2023-04-25T12:48:19;0.60;;;0.60;;
30593;SDS011;33199;47.590;8.300;2023-04-25T12:50:45;0.57;;;0.57;;
30593;SDS011;33199;47.590;8.300;2023-04-25T12:53:15;1.42;;;0.50;;
30593;SDS011;33199;47.590;8.300;2023-04-25T12:55:41;0.70;;;0.70;;
30593;SDS011;33199;47.590;8.300;2023-04-25T12:58:07;0.70;;;0.70;;
30593;SDS011;33199;47.590;8.300;2023-04-25T13:00:33;0.57;;;0.57;;
30593;SDS011;33199;47.590;8.300;2023-04-25T13:02:59;0.50;;;0.50;;
30593;SDS011;33199;47.590;8.300;2023-04-25T13:05:25;0.63;;;0.63;;
30593;SDS011;33199;47.590;8.300;2023-04-25T13:07:50;0.60;;;0.60;;
30593;SDS011;33199;47.590;8.300;2023-04-25T13:10:16;0.60;;;0.60;;
30593;SDS011;33199;47.590;8.300;2023-04-25T13:12:43;0.98;;;0.95;;
30593;SDS011;33199;47.590;8.300;2023-04-25T13:15:09;0.50;;;0.50;;
30593;SDS011;33199;47.590;8.300;2023-04-25T13:17:36;2.17;;;0.68;;
30593;SDS011;33199;47.590;8.300;2023-04-25T13:20:03;0.63;;;0.63;;
30593;SDS011;33199;47.590;8.300;2023-04-25T13:22:33;0.60;;;0.60;;
30593;SDS011;33199;47.590;8.300;2023-04-25T13:25:01;0.52;;;0.52;;
30593;SDS011;33199;47.590;8.300;2023-04-25T13:27:28;1.27;;;0.65;;
30593;SDS011;33199;47.590;8.300;2023-04-25T13:29:53;0.60;;;0.60;;
30593;SDS011;33199;47.590;8.300;2023-04-25T13:32:19;1.05;;;0.70;;
30593;SDS011;33199;47.590;8.300;2023-04-25T13:34:45;0.40;;;0.40;;
30593;SDS011;33199;47.590;8.300;2023-04-25T13:37:10;0.50;;;0.50;;
30593;SDS011;33199;47.590;8.300;2023-04-25T13:39:36;1.00;;;0.60;;
30593;SDS011;33199;47.590;8.300;2023-04-25T13:42:02;0.90;;;0.90;;
30593;SDS011;33199;47.590;8.300;2023-04-25T13:44:28;0.55;;;0.52;;
30593;SDS011;33199;47.590;8.300;2023-04-25T13:46:53;0.70;;;0.70;;
30593;SDS011;33199;47.590;8.300;2023-04-25T13:49:19;0.40;;;0.40;;
30593;SDS011;33199;47.590;8.300;2023-04-25T13:51:45;1.25;;;0.60;;
30593;SDS011;33199;47.590;8.300;2023-04-25T13:54:10;0.77;;;0.60;;
30593;SDS011;33199;47.590;8.300;2023-04-25T13:56:37;1.10;;;0.70;;
30593;SDS011;33199;47.590;8.300;2023-04-25T13:59:03;0.70;;;0.50;;
30593;SDS011;33199;47.590;8.300;2023-04-25T14:01:28;0.63;;;0.50;;
30593;SDS011;33199;47.590;8.300;2023-04-25T14:03:56;1.02;;;0.55;;
30593;SDS011;33199;47.590;8.300;2023-04-25T14:06:22;0.60;;;0.60;;
30593;SDS011;33199;47.590;8.300;2023-04-25T14:08:48;2.47;;;0.70;;
30593;SDS011;33199;47.590;8.300;2023-04-25T14:11:14;0.52;;;0.45;;
30593;SDS011;33199;47.590;8.300;2023-04-25T14:13:39;0.65;;;0.60;;
30593;SDS011;33199;47.590;8.300;2023-04-25T14:16:05;1.08;;;0.60;;
30593;SDS011;33199;47.590;8.300;2023-04-25T14:18:31;3.58;;;0.60;;
30593;SDS011;33199;47.590;8.300;2023-04-25T14:20:56;2.42;;;0.47;;
30593;SDS011;33199;47.590;8.300;2023-04-25T14:23:22;0.80;;;0.55;;
30593;SDS011;33199;47.590;8.300;2023-04-25T14:25:48;1.35;;;0.50;;
30593;SDS011;33199;47.590;8.300;2023-04-25T14:28:13;0.75;;;0.70;;
30593;SDS011;33199;47.590;8.300;2023-04-25T14:30:39;0.68;;;0.60;;
30593;SDS011;33199;47.590;8.300;2023-04-25T14:33:04;1.85;;;1.23;;
30593;SDS011;33199;47.590;8.300;2023-04-25T14:35:30;1.23;;;0.68;;
30593;SDS011;33199;47.590;8.300;2023-04-25T14:37:55;1.38;;;0.70;;
30593;SDS011;33199;47.590;8.300;2023-04-25T14:40:21;1.50;;;0.60;;
30593;SDS011;33199;47.590;8.300;2023-04-25T14:42:48;2.22;;;1.05;;
30593;SDS011;33199;47.590;8.300;2023-04-25T14:45:14;1.13;;;0.70;;
30593;SDS011;33199;47.590;8.300;2023-04-25T14:47:40;4.35;;;0.75;;
30593;SDS011;33199;47.590;8.300;2023-04-25T14:50:06;2.60;;;0.80;;
30593;SDS011;33199;47.590;8.300;2023-04-25T14:52:33;1.77;;;0.82;;
30593;SDS011;33199;47.590;8.300;2023-04-25T14:54:59;0.70;;;0.70;;
30593;SDS011;33199;47.590;8.300;2023-04-25T14:57:29;0.85;;;0.68;;
30593;SDS011;33199;47.590;8.300;2023-04-25T14:59:56;1.23;;;0.70;;
30593;SDS011;33199;47.590;8.300;2023-04-25T15:02:23;1.10;;;0.70;;